Qishan — V3NY6 — position and weather

sailwx.info

Track history (hours):
 
Tides and Currents Weather Stations Pressure Air Temp Water Temp Dewpoint Dewpoint Depression Visibility Wind Speed Wind Dir Waves Ship Positions

Qishan

Last reported at 2018-Jul-14 00:44 UTC. Time now 2018-Jul-19 19:31 UTC.
Position N 31°02' E 122°43'.

Length 100 m; draft 4 m.

Type: Cargo ship. MMSI: 312445000.

Date/timePositionNaut miles runAvg speedWind from/ knotsBaromVisibWave heightAir tempDewpointWater temp
2018-Jul-14 00:44N 31°02' E 122°43'512.1
2018-Jul-14 00:17N 30°59' E 122°38'511.5
2018-Jul-13 23:52N 30°59' E 122°32'611.6
2018-Jul-13 23:21N 31°00' E 122°25'412.2
2018-Jul-13 22:59N 31°01' E 122°20'612.4
2018-Jul-13 22:30N 31°02' E 122°14'612.5
2018-Jul-13 22:00N 31°03' E 122°06'714.3
2018-Jul-13 21:30N 31°06' E 121°59'814.5
2018-Jul-13 20:59N 31°10' E 121°51'3 0.2
2018-Jul-13 03:49N 31°13' E 121°49'512.0
2018-Jul-13 03:23N 31°09' E 121°53'512.5
2018-Jul-13 02:59N 31°07' E 121°58'712.7
2018-Jul-13 02:28N 31°04' E 122°05'  
2018-Jul-08 11:28N 34°25' E 134°23'511.3
2018-Jul-08 11:00N 34°27' E 134°29'711.4
2018-Jul-08 10:22N 34°30' E 134°37'411.4
2018-Jul-08 09:59N 34°32' E 134°42'612.1
2018-Jul-08 09:29N 34°34' E 134°49'612.7
2018-Jul-08 09:00N 34°36' E 134°56'612.2
2018-Jul-08 08:30N 34°36' E 135°03'510.6
2018-Jul-08 08:00N 34°31' E 135°04'612.2
2018-Jul-08 07:30N 34°25' E 135°02'612.9
2018-Jul-08 07:00N 34°19' E 134°60'612.4
2018-Jul-08 06:31N 34°13' E 134°60'612.0
2018-Jul-08 06:01N 34°07' E 134°59'612.1
2018-Jul-08 05:31N 34°01' E 135°01'612.0
2018-Jul-08 05:01N 33°55' E 135°01'611.6
2018-Jul-08 04:31N 33°49' E 135°02'224 9.5
2018-Jul-07 04:48N 34°54' E 139°23'3 8.5
2018-Jul-07 04:30N 34°55' E 139°25'4 8.4
2018-Jul-07 04:00N 34°58' E 139°29'4 8.5
2018-Jul-07 03:30N 35°00' E 139°33'5 9.2
2018-Jul-07 03:01N 35°03' E 139°38'510.6
2018-Jul-07 02:30N 35°07' E 139°42'510.9
2018-Jul-07 02:00N 35°12' E 139°46'510.4
2018-Jul-07 01:31N 35°17' E 139°45'611.0
2018-Jul-07 01:01N 35°22' E 139°42'510.2
2018-Jul-07 00:31N 35°26' E 139°46'510.1
2018-Jul-07 00:00N 35°22' E 139°50'1 1.4
2018-Jul-06 23:28N 35°22' E 139°51'0 0.0
2018-Jul-06 22:58N 35°22' E 139°51'0 0.0
2018-Jul-06 22:28N 35°22' E 139°51'0 0.0
2018-Jul-06 21:58N 35°22' E 139°51'0 0.0
2018-Jul-06 21:28N 35°22' E 139°51'0 0.0
2018-Jul-06 20:55N 35°22' E 139°51'0 0.0
2018-Jul-06 20:28N 35°22' E 139°51'0 0.0
2018-Jul-06 19:58N 35°22' E 139°51'0 0.0
2018-Jul-06 19:28N 35°22' E 139°51'0 0.0
2018-Jul-06 18:58N 35°22' E 139°51'0 0.0
2018-Jul-06 18:28N 35°22' E 139°51'0 0.0
2018-Jul-06 17:58N 35°22' E 139°51'0 0.0
2018-Jul-06 17:28N 35°22' E 139°51'0 0.0
2018-Jul-06 16:58N 35°22' E 139°51'0 0.0
2018-Jul-06 16:28N 35°22' E 139°51'0 0.0
2018-Jul-06 15:58N 35°22' E 139°51'0 0.0
2018-Jul-06 15:28N 35°22' E 139°51'0 0.0
2018-Jul-06 14:55N 35°22' E 139°51'0 0.0
2018-Jul-06 14:28N 35°22' E 139°51'0 0.0
2018-Jul-06 13:58N 35°22' E 139°51'0 0.0
2018-Jul-06 13:28N 35°22' E 139°51'0 0.0
2018-Jul-06 12:58N 35°22' E 139°51'0 0.0
2018-Jul-06 12:28N 35°22' E 139°51'0 0.0
2018-Jul-06 11:58N 35°22' E 139°51'0 0.0
2018-Jul-06 11:28N 35°22' E 139°51'0 0.0
2018-Jul-06 10:58N 35°22' E 139°51'0 0.0
2018-Jul-06 10:28N 35°22' E 139°51'0 0.0
2018-Jul-06 09:58N 35°22' E 139°51'0 0.0
2018-Jul-06 09:28N 35°22' E 139°51'0 0.0
2018-Jul-06 08:58N 35°22' E 139°51'0 0.0
2018-Jul-06 08:25N 35°22' E 139°51'0 0.0
2018-Jul-06 07:58N 35°22' E 139°51'0 0.0
2018-Jul-06 07:25N 35°22' E 139°51'0 0.0
2018-Jul-06 06:58N 35°22' E 139°51'0 0.0
2018-Jul-06 06:25N 35°22' E 139°51'0 0.0
2018-Jul-06 05:55N 35°22' E 139°51'0 0.0
2018-Jul-06 05:28N 35°22' E 139°51'0 0.0
2018-Jul-06 04:58N 35°22' E 139°51'0 0.0
2018-Jul-06 04:19N 35°22' E 139°51'0 0.0
2018-Jul-06 03:55N 35°22' E 139°51'0 0.0
2018-Jul-06 03:28N 35°22' E 139°51'0 0.0
2018-Jul-06 02:58N 35°22' E 139°51'0 0.0
2018-Jul-06 02:28N 35°22' E 139°51'0 0.0
2018-Jul-06 01:55N 35°22' E 139°51'0 0.0
2018-Jul-06 01:28N 35°22' E 139°51'0 0.0
2018-Jul-06 00:58N 35°22' E 139°51'0 0.0
2018-Jul-06 00:22N 35°22' E 139°51'0 0.0
2018-Jul-05 23:58N 35°22' E 139°51'0 0.0
2018-Jul-05 23:28N 35°22' E 139°51'0 0.0
2018-Jul-05 22:55N 35°22' E 139°51'0 0.0
2018-Jul-05 22:28N 35°22' E 139°51'0 0.0
2018-Jul-05 21:58N 35°22' E 139°51'0 0.0
2018-Jul-05 21:28N 35°22' E 139°51'0 0.0
2018-Jul-05 20:58N 35°22' E 139°51'0 0.0
2018-Jul-05 20:28N 35°22' E 139°51'0 0.0
2018-Jul-05 19:58N 35°22' E 139°51'0 0.0
2018-Jul-05 19:25N 35°22' E 139°51'0 0.0
2018-Jul-05 18:55N 35°22' E 139°51'0 0.0
2018-Jul-05 18:28N 35°22' E 139°51'0 0.0
2018-Jul-05 17:55N 35°22' E 139°51'0 0.0
2018-Jul-05 17:28N 35°22' E 139°51'0 0.0
2018-Jul-05 16:58N 35°22' E 139°51'0 0.0
2018-Jul-05 16:28N 35°22' E 139°51'0 0.0
2018-Jul-05 15:58N 35°22' E 139°51'0 0.0
2018-Jul-05 15:28N 35°22' E 139°51'0 0.0
2018-Jul-05 14:58N 35°22' E 139°51'0 0.0
2018-Jul-05 14:22N 35°22' E 139°51'0 0.0
2018-Jul-05 13:28N 35°22' E 139°51'0 0.0
2018-Jul-05 12:46N 35°22' E 139°51'0 0.0
2018-Jul-05 12:28N 35°22' E 139°51'0 0.0
2018-Jul-05 11:58N 35°22' E 139°51'0 0.0
2018-Jul-05 11:28N 35°22' E 139°51'0 0.0
2018-Jul-05 10:55N 35°22' E 139°51'0 0.0
2018-Jul-05 10:28N 35°22' E 139°51'0 0.0
2018-Jul-05 09:55N 35°22' E 139°51'0 0.0
2018-Jul-05 09:22N 35°22' E 139°51'0 0.0
2018-Jul-05 08:55N 35°22' E 139°51'0 0.0
2018-Jul-05 08:28N 35°22' E 139°51'0 0.0
2018-Jul-05 07:58N 35°22' E 139°51'0 0.0
2018-Jul-05 07:28N 35°22' E 139°51'0 0.0
2018-Jul-05 06:58N 35°22' E 139°51'0 0.0
2018-Jul-05 06:28N 35°22' E 139°51'0 0.0
2018-Jul-05 05:58N 35°22' E 139°51'0 0.0
2018-Jul-05 05:28N 35°22' E 139°51'0 0.0
2018-Jul-05 04:55N 35°22' E 139°51'0 0.0
2018-Jul-05 04:28N 35°22' E 139°51'0 0.0
2018-Jul-05 03:55N 35°22' E 139°51'0 0.0
2018-Jul-05 03:28N 35°22' E 139°51'0 0.0
2018-Jul-05 02:58N 35°22' E 139°51'0 0.0
2018-Jul-05 02:28N 35°22' E 139°51'0 0.0
2018-Jul-05 01:55N 35°22' E 139°51'0 0.0
2018-Jul-05 01:28N 35°22' E 139°51'0 0.0
2018-Jul-05 00:58N 35°22' E 139°51'0 0.0
2018-Jul-05 00:25N 35°22' E 139°51'0 0.0
2018-Jul-04 23:58N 35°22' E 139°51'0 0.0
2018-Jul-04 23:28N 35°22' E 139°51'0 0.0
2018-Jul-04 22:58N 35°22' E 139°51'0 0.0
2018-Jul-04 22:28N 35°22' E 139°51'0 0.0
2018-Jul-04 21:58N 35°22' E 139°51'0 0.0
2018-Jul-04 21:28N 35°22' E 139°51'0 0.0
2018-Jul-04 20:58N 35°22' E 139°51'0 0.0
2018-Jul-04 20:28N 35°22' E 139°51'0 0.0
2018-Jul-04 19:58N 35°22' E 139°51'0 0.0
2018-Jul-04 19:28N 35°22' E 139°51'0 0.0
2018-Jul-04 18:58N 35°22' E 139°51'0 0.0
2018-Jul-04 18:28N 35°22' E 139°51'0 0.0
2018-Jul-04 17:58N 35°22' E 139°51'0 0.0
2018-Jul-04 17:28N 35°22' E 139°51'0 0.0
2018-Jul-04 16:58N 35°22' E 139°51'0 0.0
2018-Jul-04 16:28N 35°22' E 139°51'0 0.0
2018-Jul-04 15:58N 35°22' E 139°51'0 0.0
2018-Jul-04 15:28N 35°22' E 139°51'0 0.0
2018-Jul-04 14:58N 35°22' E 139°51'0 0.0
2018-Jul-04 14:28N 35°22' E 139°51'0 0.0
2018-Jul-04 13:58N 35°22' E 139°51'0 0.0
2018-Jul-04 13:22N 35°22' E 139°51'0 0.0
2018-Jul-04 12:58N 35°22' E 139°51'0 0.0
2018-Jul-04 12:28N 35°22' E 139°51'0 0.0
2018-Jul-04 11:58N 35°22' E 139°51'0 0.0
2018-Jul-04 11:28N 35°22' E 139°51'0 0.0
2018-Jul-04 10:52N 35°22' E 139°51'0 0.0
2018-Jul-04 10:28N 35°22' E 139°51'0 0.0
2018-Jul-04 09:58N 35°22' E 139°51'0 0.0
2018-Jul-04 09:28N 35°22' E 139°51'0 0.0
2018-Jul-04 08:58N 35°22' E 139°51'0 0.0
2018-Jul-04 08:28N 35°22' E 139°51'0 0.0
2018-Jul-04 07:58N 35°22' E 139°51'0 0.0
2018-Jul-04 07:28N 35°22' E 139°51'0 0.0
2018-Jul-04 06:58N 35°22' E 139°51'0 0.0
2018-Jul-04 06:28N 35°22' E 139°51'0 0.0
2018-Jul-04 05:58N 35°22' E 139°51'0 0.0
2018-Jul-04 05:28N 35°22' E 139°51'0 0.0
2018-Jul-04 04:58N 35°22' E 139°51'0 0.0
2018-Jul-04 04:28N 35°22' E 139°51'0 0.0
2018-Jul-04 03:58N 35°22' E 139°51'0 0.0
2018-Jul-04 03:25N 35°22' E 139°51'0 0.0
2018-Jul-04 02:58N 35°22' E 139°51'0 0.0
2018-Jul-04 02:28N 35°22' E 139°51'0 0.0
2018-Jul-04 01:58N 35°22' E 139°51'0 0.0
2018-Jul-04 01:28N 35°22' E 139°51'0 0.0
2018-Jul-04 00:58N 35°22' E 139°51'  
Track history (hours):
 
Tides and Currents Weather Stations Pressure Air Temp Water Temp Dewpoint Dewpoint Depression Visibility Wind Speed Wind Dir Waves Ship Positions

Qishan

Last reported at 2018-Jul-14 00:44 UTC. Time now 2018-Jul-19 19:31 UTC.
Position N 31°02' E 122°43'.

Length 100 m; draft 4 m.

Type: Cargo ship. MMSI: 312445000.

Date/timePositionNaut miles runAvg speedWind from/ knotsBaromVisibWave heightAir tempDewpointWater temp
2018-Jul-14 00:44N 31°02' E 122°43'512.1
2018-Jul-14 00:17N 30°59' E 122°38'511.5
2018-Jul-13 23:52N 30°59' E 122°32'611.6
2018-Jul-13 23:21N 31°00' E 122°25'412.2
2018-Jul-13 22:59N 31°01' E 122°20'612.4
2018-Jul-13 22:30N 31°02' E 122°14'612.5
2018-Jul-13 22:00N 31°03' E 122°06'714.3
2018-Jul-13 21:30N 31°06' E 121°59'814.5
2018-Jul-13 20:59N 31°10' E 121°51'3 0.2
2018-Jul-13 03:49N 31°13' E 121°49'512.0
2018-Jul-13 03:23N 31°09' E 121°53'512.5
2018-Jul-13 02:59N 31°07' E 121°58'712.7
2018-Jul-13 02:28N 31°04' E 122°05'  
2018-Jul-08 11:28N 34°25' E 134°23'511.3
2018-Jul-08 11:00N 34°27' E 134°29'711.4
2018-Jul-08 10:22N 34°30' E 134°37'411.4
2018-Jul-08 09:59N 34°32' E 134°42'612.1
2018-Jul-08 09:29N 34°34' E 134°49'612.7
2018-Jul-08 09:00N 34°36' E 134°56'612.2
2018-Jul-08 08:30N 34°36' E 135°03'510.6
2018-Jul-08 08:00N 34°31' E 135°04'612.2
2018-Jul-08 07:30N 34°25' E 135°02'612.9
2018-Jul-08 07:00N 34°19' E 134°60'612.4
2018-Jul-08 06:31N 34°13' E 134°60'612.0
2018-Jul-08 06:01N 34°07' E 134°59'612.1
2018-Jul-08 05:31N 34°01' E 135°01'612.0
2018-Jul-08 05:01N 33°55' E 135°01'611.6
2018-Jul-08 04:31N 33°49' E 135°02'224 9.5
2018-Jul-07 04:48N 34°54' E 139°23'3 8.5
2018-Jul-07 04:30N 34°55' E 139°25'4 8.4
2018-Jul-07 04:00N 34°58' E 139°29'4 8.5
2018-Jul-07 03:30N 35°00' E 139°33'5 9.2
2018-Jul-07 03:01N 35°03' E 139°38'510.6
2018-Jul-07 02:30N 35°07' E 139°42'510.9
2018-Jul-07 02:00N 35°12' E 139°46'510.4
2018-Jul-07 01:31N 35°17' E 139°45'611.0
2018-Jul-07 01:01N 35°22' E 139°42'510.2
2018-Jul-07 00:31N 35°26' E 139°46'510.1
2018-Jul-07 00:00N 35°22' E 139°50'1 1.4
2018-Jul-06 23:28N 35°22' E 139°51'0 0.0
2018-Jul-06 22:58N 35°22' E 139°51'0 0.0
2018-Jul-06 22:28N 35°22' E 139°51'0 0.0
2018-Jul-06 21:58N 35°22' E 139°51'0 0.0
2018-Jul-06 21:28N 35°22' E 139°51'0 0.0
2018-Jul-06 20:55N 35°22' E 139°51'0 0.0
2018-Jul-06 20:28N 35°22' E 139°51'0 0.0
2018-Jul-06 19:58N 35°22' E 139°51'0 0.0
2018-Jul-06 19:28N 35°22' E 139°51'0 0.0
2018-Jul-06 18:58N 35°22' E 139°51'0 0.0
2018-Jul-06 18:28N 35°22' E 139°51'0 0.0
2018-Jul-06 17:58N 35°22' E 139°51'0 0.0
2018-Jul-06 17:28N 35°22' E 139°51'0 0.0
2018-Jul-06 16:58N 35°22' E 139°51'0 0.0
2018-Jul-06 16:28N 35°22' E 139°51'0 0.0
2018-Jul-06 15:58N 35°22' E 139°51'0 0.0
2018-Jul-06 15:28N 35°22' E 139°51'0 0.0
2018-Jul-06 14:55N 35°22' E 139°51'0 0.0
2018-Jul-06 14:28N 35°22' E 139°51'0 0.0
2018-Jul-06 13:58N 35°22' E 139°51'0 0.0
2018-Jul-06 13:28N 35°22' E 139°51'0 0.0
2018-Jul-06 12:58N 35°22' E 139°51'0 0.0
2018-Jul-06 12:28N 35°22' E 139°51'0 0.0
2018-Jul-06 11:58N 35°22' E 139°51'0 0.0
2018-Jul-06 11:28N 35°22' E 139°51'0 0.0
2018-Jul-06 10:58N 35°22' E 139°51'0 0.0
2018-Jul-06 10:28N 35°22' E 139°51'0 0.0
2018-Jul-06 09:58N 35°22' E 139°51'0 0.0
2018-Jul-06 09:28N 35°22' E 139°51'0 0.0
2018-Jul-06 08:58N 35°22' E 139°51'0 0.0
2018-Jul-06 08:25N 35°22' E 139°51'0 0.0
2018-Jul-06 07:58N 35°22' E 139°51'0 0.0
2018-Jul-06 07:25N 35°22' E 139°51'0 0.0
2018-Jul-06 06:58N 35°22' E 139°51'0 0.0
2018-Jul-06 06:25N 35°22' E 139°51'0 0.0
2018-Jul-06 05:55N 35°22' E 139°51'0 0.0
2018-Jul-06 05:28N 35°22' E 139°51'0 0.0
2018-Jul-06 04:58N 35°22' E 139°51'0 0.0
2018-Jul-06 04:19N 35°22' E 139°51'0 0.0
2018-Jul-06 03:55N 35°22' E 139°51'0 0.0
2018-Jul-06 03:28N 35°22' E 139°51'0 0.0
2018-Jul-06 02:58N 35°22' E 139°51'0 0.0
2018-Jul-06 02:28N 35°22' E 139°51'0 0.0
2018-Jul-06 01:55N 35°22' E 139°51'0 0.0
2018-Jul-06 01:28N 35°22' E 139°51'0 0.0
2018-Jul-06 00:58N 35°22' E 139°51'0 0.0
2018-Jul-06 00:22N 35°22' E 139°51'0 0.0
2018-Jul-05 23:58N 35°22' E 139°51'0 0.0
2018-Jul-05 23:28N 35°22' E 139°51'0 0.0
2018-Jul-05 22:55N 35°22' E 139°51'0 0.0
2018-Jul-05 22:28N 35°22' E 139°51'0 0.0
2018-Jul-05 21:58N 35°22' E 139°51'0 0.0
2018-Jul-05 21:28N 35°22' E 139°51'0 0.0
2018-Jul-05 20:58N 35°22' E 139°51'0 0.0
2018-Jul-05 20:28N 35°22' E 139°51'0 0.0
2018-Jul-05 19:58N 35°22' E 139°51'0 0.0
2018-Jul-05 19:25N 35°22' E 139°51'0 0.0
2018-Jul-05 18:55N 35°22' E 139°51'0 0.0
2018-Jul-05 18:28N 35°22' E 139°51'0 0.0
2018-Jul-05 17:55N 35°22' E 139°51'0 0.0
2018-Jul-05 17:28N 35°22' E 139°51'0 0.0
2018-Jul-05 16:58N 35°22' E 139°51'0 0.0
2018-Jul-05 16:28N 35°22' E 139°51'0 0.0
2018-Jul-05 15:58N 35°22' E 139°51'0 0.0
2018-Jul-05 15:28N 35°22' E 139°51'0 0.0
2018-Jul-05 14:58N 35°22' E 139°51'0 0.0
2018-Jul-05 14:22N 35°22' E 139°51'0 0.0
2018-Jul-05 13:28N 35°22' E 139°51'0 0.0
2018-Jul-05 12:46N 35°22' E 139°51'0 0.0
2018-Jul-05 12:28N 35°22' E 139°51'0 0.0
2018-Jul-05 11:58N 35°22' E 139°51'0 0.0
2018-Jul-05 11:28N 35°22' E 139°51'0 0.0
2018-Jul-05 10:55N 35°22' E 139°51'0 0.0
2018-Jul-05 10:28N 35°22' E 139°51'0 0.0
2018-Jul-05 09:55N 35°22' E 139°51'0 0.0
2018-Jul-05 09:22N 35°22' E 139°51'0 0.0
2018-Jul-05 08:55N 35°22' E 139°51'0 0.0
2018-Jul-05 08:28N 35°22' E 139°51'0 0.0
2018-Jul-05 07:58N 35°22' E 139°51'0 0.0
2018-Jul-05 07:28N 35°22' E 139°51'0 0.0
2018-Jul-05 06:58N 35°22' E 139°51'0 0.0
2018-Jul-05 06:28N 35°22' E 139°51'0 0.0
2018-Jul-05 05:58N 35°22' E 139°51'0 0.0
2018-Jul-05 05:28N 35°22' E 139°51'0 0.0
2018-Jul-05 04:55N 35°22' E 139°51'0 0.0
2018-Jul-05 04:28N 35°22' E 139°51'0 0.0
2018-Jul-05 03:55N 35°22' E 139°51'0 0.0
2018-Jul-05 03:28N 35°22' E 139°51'0 0.0
2018-Jul-05 02:58N 35°22' E 139°51'0 0.0
2018-Jul-05 02:28N 35°22' E 139°51'0 0.0
2018-Jul-05 01:55N 35°22' E 139°51'0 0.0
2018-Jul-05 01:28N 35°22' E 139°51'0 0.0
2018-Jul-05 00:58N 35°22' E 139°51'0 0.0
2018-Jul-05 00:25N 35°22' E 139°51'0 0.0
2018-Jul-04 23:58N 35°22' E 139°51'0 0.0
2018-Jul-04 23:28N 35°22' E 139°51'0 0.0
2018-Jul-04 22:58N 35°22' E 139°51'0 0.0
2018-Jul-04 22:28N 35°22' E 139°51'0 0.0
2018-Jul-04 21:58N 35°22' E 139°51'0 0.0
2018-Jul-04 21:28N 35°22' E 139°51'0 0.0
2018-Jul-04 20:58N 35°22' E 139°51'0 0.0
2018-Jul-04 20:28N 35°22' E 139°51'0 0.0
2018-Jul-04 19:58N 35°22' E 139°51'0 0.0
2018-Jul-04 19:28N 35°22' E 139°51'0 0.0
2018-Jul-04 18:58N 35°22' E 139°51'0 0.0
2018-Jul-04 18:28N 35°22' E 139°51'0 0.0
2018-Jul-04 17:58N 35°22' E 139°51'0 0.0
2018-Jul-04 17:28N 35°22' E 139°51'0 0.0
2018-Jul-04 16:58N 35°22' E 139°51'0 0.0
2018-Jul-04 16:28N 35°22' E 139°51'0 0.0
2018-Jul-04 15:58N 35°22' E 139°51'0 0.0
2018-Jul-04 15:28N 35°22' E 139°51'0 0.0
2018-Jul-04 14:58N 35°22' E 139°51'0 0.0
2018-Jul-04 14:28N 35°22' E 139°51'0 0.0
2018-Jul-04 13:58N 35°22' E 139°51'0 0.0
2018-Jul-04 13:22N 35°22' E 139°51'0 0.0
2018-Jul-04 12:58N 35°22' E 139°51'0 0.0
2018-Jul-04 12:28N 35°22' E 139°51'0 0.0
2018-Jul-04 11:58N 35°22' E 139°51'0 0.0
2018-Jul-04 11:28N 35°22' E 139°51'0 0.0
2018-Jul-04 10:52N 35°22' E 139°51'0 0.0
2018-Jul-04 10:28N 35°22' E 139°51'0 0.0
2018-Jul-04 09:58N 35°22' E 139°51'0 0.0
2018-Jul-04 09:28N 35°22' E 139°51'0 0.0
2018-Jul-04 08:58N 35°22' E 139°51'0 0.0
2018-Jul-04 08:28N 35°22' E 139°51'0 0.0
2018-Jul-04 07:58N 35°22' E 139°51'0 0.0
2018-Jul-04 07:28N 35°22' E 139°51'0 0.0
2018-Jul-04 06:58N 35°22' E 139°51'0 0.0
2018-Jul-04 06:28N 35°22' E 139°51'0 0.0
2018-Jul-04 05:58N 35°22' E 139°51'0 0.0
2018-Jul-04 05:28N 35°22' E 139°51'0 0.0
2018-Jul-04 04:58N 35°22' E 139°51'0 0.0
2018-Jul-04 04:28N 35°22' E 139°51'0 0.0
2018-Jul-04 03:58N 35°22' E 139°51'0 0.0
2018-Jul-04 03:25N 35°22' E 139°51'0 0.0
2018-Jul-04 02:58N 35°22' E 139°51'0 0.0
2018-Jul-04 02:28N 35°22' E 139°51'0 0.0
2018-Jul-04 01:58N 35°22' E 139°51'0 0.0
2018-Jul-04 01:28N 35°22' E 139°51'0 0.0
2018-Jul-04 00:58N 35°22' E 139°51'  

Dump ship's entire track history